createdAt,value
2018-12-02T00:00:36.192Z,15.24
2018-12-02T00:01:37.966Z,15.24
2018-12-02T00:02:39.726Z,15.24
2018-12-02T00:03:41.484Z,15.25
2018-12-02T00:04:43.254Z,15.24
2018-12-02T00:05:45.054Z,15.24
2018-12-02T00:06:46.846Z,15.25
2018-12-02T00:07:48.622Z,15.24
2018-12-02T00:08:50.401Z,15.24
2018-12-02T00:09:52.169Z,15.23
2018-12-02T00:10:53.979Z,15.24
2018-12-02T00:11:55.754Z,15.23
2018-12-02T00:12:57.529Z,15.24
2018-12-02T00:13:59.306Z,15.22
2018-12-02T00:15:01.077Z,15.24
2018-12-02T00:16:03.122Z,15.23
2018-12-02T00:17:04.891Z,15.22
2018-12-02T00:18:06.657Z,15.24
2018-12-02T00:19:08.438Z,15.24
2018-12-02T00:20:10.196Z,15.24
2018-12-02T00:21:11.987Z,15.24
2018-12-02T00:22:13.748Z,15.22
2018-12-02T00:23:15.530Z,15.23
2018-12-02T00:24:17.290Z,15.24
2018-12-02T00:25:19.068Z,15.23
2018-12-02T00:26:20.854Z,15.23
2018-12-02T00:27:22.636Z,15.23
2018-12-02T00:28:25.321Z,15.23
2018-12-02T00:29:27.097Z,15.22
2018-12-02T00:30:28.869Z,15.23
2018-12-02T00:31:30.656Z,15.23
2018-12-02T00:32:32.418Z,15.24
2018-12-02T00:33:34.192Z,15.22
2018-12-02T00:34:35.948Z,15.23
2018-12-02T00:35:37.708Z,15.23
2018-12-02T00:36:39.482Z,15.22
2018-12-02T00:37:41.254Z,15.22
2018-12-02T00:38:43.031Z,15.22
2018-12-02T00:39:44.790Z,15.24
2018-12-02T00:40:46.563Z,15.23
2018-12-02T00:41:49.659Z,15.22
2018-12-02T00:42:51.433Z,15.22
2018-12-02T00:43:53.192Z,15.22
2018-12-02T00:44:54.972Z,15.23
2018-12-02T00:45:56.790Z,15.21
2018-12-02T00:46:58.588Z,15.21
2018-12-02T00:48:00.346Z,15.21
2018-12-02T00:49:02.114Z,15.21
2018-12-02T00:50:03.896Z,15.22
2018-12-02T00:51:05.721Z,15.21
2018-12-02T00:52:07.506Z,15.21
2018-12-02T00:53:09.267Z,15.21
2018-12-02T00:54:12.160Z,15.21
2018-12-02T00:55:13.927Z,15.21
2018-12-02T00:56:15.682Z,15.21
2018-12-02T00:57:17.476Z,15.22
2018-12-02T00:58:19.245Z,15.22
2018-12-02T00:59:21.064Z,15.21
2018-12-02T01:00:22.838Z,15.21
2018-12-02T01:01:24.595Z,15.22
2018-12-02T01:02:26.392Z,15.21
2018-12-02T01:03:28.151Z,15.21
2018-12-02T01:04:29.955Z,15.21
2018-12-02T01:05:31.757Z,15.21
2018-12-02T01:06:33.522Z,15.21
2018-12-02T01:07:35.329Z,15.21
2018-12-02T01:08:37.090Z,15.19
2018-12-02T01:09:38.865Z,15.22
2018-12-02T01:10:40.641Z,15.21
2018-12-02T01:11:42.403Z,15.21
2018-12-02T01:12:44.184Z,15.21
2018-12-02T01:13:45.951Z,15.21
2018-12-02T01:14:47.723Z,15.21
2018-12-02T01:15:49.498Z,15.21
2018-12-02T01:16:51.254Z,15.21
2018-12-02T01:17:53.020Z,15.20
2018-12-02T01:18:54.794Z,15.20
2018-12-02T01:19:56.565Z,15.20
2018-12-02T01:20:58.341Z,15.21
2018-12-02T01:22:00.099Z,15.21
2018-12-02T01:23:03.017Z,15.20
2018-12-02T01:24:04.804Z,15.20
2018-12-02T01:25:06.567Z,15.20
2018-12-02T01:26:08.348Z,15.19
2018-12-02T01:27:10.104Z,15.20
2018-12-02T01:28:11.905Z,15.20
2018-12-02T01:29:13.660Z,15.34
2018-12-02T01:30:15.428Z,15.39
2018-12-02T01:31:17.190Z,15.45
2018-12-02T01:32:18.958Z,15.49
2018-12-02T01:33:20.750Z,15.48
2018-12-02T01:34:22.544Z,15.51
2018-12-02T01:35:24.442Z,15.49
2018-12-02T01:36:26.198Z,15.50
2018-12-02T01:37:28.004Z,15.50
2018-12-02T01:38:29.814Z,15.48
2018-12-02T01:39:31.620Z,15.46
2018-12-02T01:40:33.485Z,15.46
2018-12-02T01:41:35.248Z,15.50
2018-12-02T01:42:37.018Z,15.49
2018-12-02T01:43:38.821Z,15.49
2018-12-02T01:44:40.596Z,15.50
2018-12-02T01:45:42.359Z,15.50
2018-12-02T01:46:44.123Z,15.48
2018-12-02T01:47:46.001Z,15.49
2018-12-02T01:48:47.798Z,15.49
2018-12-02T01:49:49.587Z,15.49
2018-12-02T01:50:51.347Z,15.50
2018-12-02T01:51:53.118Z,15.50
2018-12-02T01:52:54.907Z,15.49
2018-12-02T01:53:56.696Z,15.50
2018-12-02T01:54:58.466Z,15.48
2018-12-02T01:56:00.208Z,15.49
2018-12-02T01:57:01.991Z,15.49
2018-12-02T01:58:03.731Z,15.51
2018-12-02T01:59:05.607Z,15.50
2018-12-02T02:00:07.370Z,15.48
2018-12-02T02:01:10.396Z,15.51
2018-12-02T02:02:12.162Z,15.50
2018-12-02T02:03:13.907Z,15.51
2018-12-02T02:04:15.692Z,15.50
2018-12-02T02:05:17.456Z,15.50
2018-12-02T02:06:19.224Z,15.52
2018-12-02T02:07:21.029Z,15.50
2018-12-02T02:08:22.820Z,15.52
2018-12-02T02:09:24.618Z,15.49
2018-12-02T02:10:26.390Z,15.48
2018-12-02T02:11:28.199Z,15.48
2018-12-02T02:12:29.985Z,15.50
2018-12-02T02:13:31.772Z,15.50
2018-12-02T02:14:33.653Z,15.49
2018-12-02T02:15:35.439Z,15.47
2018-12-02T02:16:37.245Z,15.48
2018-12-02T02:17:39.269Z,15.47
2018-12-02T02:18:41.115Z,15.48
2018-12-02T02:19:42.903Z,15.47
2018-12-02T02:20:44.670Z,15.47
2018-12-02T02:21:46.459Z,15.48
2018-12-02T02:22:48.238Z,15.49
2018-12-02T02:23:50.007Z,15.48
2018-12-02T02:24:51.805Z,15.49
2018-12-02T02:25:53.569Z,15.48
2018-12-02T02:26:55.342Z,15.48
2018-12-02T02:27:57.121Z,15.49
2018-12-02T02:28:59.624Z,15.51
2018-12-02T02:30:01.430Z,15.50
2018-12-02T02:31:03.201Z,15.50
2018-12-02T02:32:04.978Z,15.49
2018-12-02T02:33:06.746Z,15.48
2018-12-02T02:34:08.521Z,15.48
2018-12-02T02:35:10.312Z,15.49
2018-12-02T02:36:12.089Z,15.49
2018-12-02T02:37:13.884Z,15.49
2018-12-02T02:38:15.656Z,15.47
2018-12-02T02:39:17.750Z,15.49
2018-12-02T02:40:19.555Z,15.49
2018-12-02T02:41:21.320Z,15.48
2018-12-02T02:42:23.104Z,15.49
2018-12-02T02:43:24.860Z,15.48
2018-12-02T02:44:26.636Z,15.49
2018-12-02T02:45:28.415Z,15.49
2018-12-02T02:46:30.303Z,15.50
2018-12-02T02:47:32.077Z,15.50
2018-12-02T02:48:33.845Z,15.49
2018-12-02T02:49:35.639Z,15.49
2018-12-02T02:50:37.402Z,15.48
2018-12-02T02:51:39.989Z,15.48
2018-12-02T02:52:41.753Z,15.48
2018-12-02T02:53:43.518Z,15.48
2018-12-02T02:54:45.301Z,15.48
2018-12-02T02:55:47.087Z,15.49
2018-12-02T02:56:48.853Z,15.48
2018-12-02T02:57:50.621Z,15.48
2018-12-02T02:58:52.399Z,15.48
2018-12-02T02:59:54.991Z,15.48
2018-12-02T03:00:56.763Z,15.48
2018-12-02T03:01:58.541Z,15.48
2018-12-02T03:03:00.389Z,15.48
2018-12-02T03:04:02.170Z,15.48
2018-12-02T03:05:03.952Z,15.48
2018-12-02T03:06:05.702Z,15.49
2018-12-02T03:07:07.482Z,15.47
2018-12-02T03:08:09.251Z,15.48
2018-12-02T03:09:11.034Z,15.49
2018-12-02T03:10:12.799Z,15.51
2018-12-02T03:11:14.599Z,15.50
2018-12-02T03:12:16.379Z,15.47
2018-12-02T03:13:18.137Z,15.47
2018-12-02T03:14:19.921Z,15.49
2018-12-02T03:15:21.684Z,15.47
2018-12-02T03:16:23.485Z,15.47
2018-12-02T03:17:25.242Z,15.49
2018-12-02T03:18:27.021Z,15.47
2018-12-02T03:19:28.801Z,15.48
2018-12-02T03:20:30.574Z,15.48
2018-12-02T03:21:32.927Z,15.48
2018-12-02T03:22:34.741Z,15.48
2018-12-02T03:23:36.593Z,15.48
2018-12-02T03:24:38.386Z,15.49
2018-12-02T03:25:40.143Z,15.51
2018-12-02T03:26:41.925Z,15.51
2018-12-02T03:27:43.711Z,15.48
2018-12-02T03:28:45.483Z,15.50
2018-12-02T03:29:47.264Z,15.49
2018-12-02T03:30:49.028Z,15.48
2018-12-02T03:31:50.852Z,15.46
2018-12-02T03:32:52.789Z,15.48
2018-12-02T03:33:55.407Z,15.47
2018-12-02T03:34:57.154Z,15.48
2018-12-02T03:35:58.913Z,15.48
2018-12-02T03:37:00.667Z,15.47
2018-12-02T03:38:03.311Z,15.47
2018-12-02T03:39:05.204Z,15.47
2018-12-02T03:40:06.987Z,15.49
2018-12-02T03:41:08.759Z,15.48
2018-12-02T03:42:10.547Z,15.49
2018-12-02T03:43:12.306Z,15.48
2018-12-02T03:44:14.075Z,15.49
2018-12-02T03:45:15.864Z,15.48
2018-12-02T03:46:17.643Z,15.48
2018-12-02T03:47:19.423Z,15.49
2018-12-02T03:48:21.185Z,15.48
2018-12-02T03:49:22.977Z,15.48
2018-12-02T03:50:24.847Z,15.47
2018-12-02T03:51:26.892Z,15.47
2018-12-02T03:52:28.692Z,15.46
2018-12-02T03:53:30.456Z,15.49
2018-12-02T03:54:32.209Z,15.48
2018-12-02T03:55:33.971Z,15.49
2018-12-02T03:56:35.753Z,15.46
2018-12-02T03:57:37.570Z,15.47
2018-12-02T03:58:39.330Z,15.47
2018-12-02T03:59:41.111Z,15.45
2018-12-02T04:00:42.886Z,15.47
2018-12-02T04:01:44.660Z,15.46
2018-12-02T04:02:46.456Z,15.48
2018-12-02T04:03:48.220Z,15.48
2018-12-02T04:04:49.974Z,15.47
2018-12-02T04:05:51.740Z,15.49
2018-12-02T04:06:53.512Z,15.48
2018-12-02T04:07:55.505Z,15.48
2018-12-02T04:08:57.262Z,15.48
2018-12-02T04:09:59.028Z,15.47
2018-12-02T04:11:00.798Z,15.47
2018-12-02T04:12:02.565Z,15.47
2018-12-02T04:13:05.566Z,15.47
2018-12-02T04:14:07.322Z,15.48
2018-12-02T04:15:09.133Z,15.48
2018-12-02T04:16:10.912Z,15.48
2018-12-02T04:17:12.676Z,15.49
2018-12-02T04:18:14.472Z,15.47
2018-12-02T04:19:16.252Z,15.49
2018-12-02T04:20:18.059Z,15.47
2018-12-02T04:21:19.813Z,15.48
2018-12-02T04:22:21.556Z,15.48
2018-12-02T04:23:23.343Z,15.49
2018-12-02T04:24:25.100Z,15.48
2018-12-02T04:25:26.885Z,15.48
2018-12-02T04:26:28.696Z,15.48
2018-12-02T04:27:30.474Z,15.46
2018-12-02T04:28:32.262Z,15.46
2018-12-02T04:29:34.026Z,15.47
2018-12-02T04:30:36.069Z,15.47
2018-12-02T04:31:37.881Z,15.46
2018-12-02T04:32:39.791Z,15.46
2018-12-02T04:33:41.603Z,15.46
2018-12-02T04:34:43.357Z,15.47
2018-12-02T04:35:45.106Z,15.47
2018-12-02T04:36:46.886Z,15.46
2018-12-02T04:37:48.668Z,15.47
2018-12-02T04:38:50.456Z,15.46
2018-12-02T04:39:52.229Z,15.47
2018-12-02T04:40:53.993Z,15.47
2018-12-02T04:41:55.777Z,15.49
2018-12-02T04:42:57.643Z,15.48
2018-12-02T04:43:59.413Z,15.48
2018-12-02T04:45:01.175Z,15.48
2018-12-02T04:46:02.949Z,15.48
2018-12-02T04:47:04.993Z,15.47
2018-12-02T04:48:06.757Z,15.47
2018-12-02T04:49:08.606Z,15.47
2018-12-02T04:50:10.384Z,15.45
2018-12-02T04:51:12.174Z,15.43
2018-12-02T04:52:13.969Z,15.42
2018-12-02T04:53:15.757Z,15.45
2018-12-02T04:54:17.560Z,15.46
2018-12-02T04:55:19.943Z,15.47
2018-12-02T04:56:21.725Z,15.46
2018-12-02T04:57:23.495Z,15.46
2018-12-02T04:58:25.265Z,15.46
2018-12-02T04:59:27.051Z,15.46
2018-12-02T05:00:28.838Z,15.45
2018-12-02T05:01:30.607Z,15.46
2018-12-02T05:02:32.373Z,15.47
2018-12-02T05:03:34.144Z,15.44
2018-12-02T05:04:35.975Z,15.45
2018-12-02T05:05:37.736Z,15.45
2018-12-02T05:06:39.519Z,15.44
2018-12-02T05:07:41.287Z,15.45
2018-12-02T05:08:43.068Z,15.44
2018-12-02T05:09:44.858Z,15.45
2018-12-02T05:10:46.627Z,15.47
2018-12-02T05:11:48.397Z,15.46
2018-12-02T05:12:50.271Z,15.47
2018-12-02T05:13:52.065Z,15.46
2018-12-02T05:14:53.882Z,15.47
2018-12-02T05:15:56.510Z,15.47
2018-12-02T05:16:58.287Z,15.47
2018-12-02T05:18:00.051Z,15.45
2018-12-02T05:19:01.838Z,15.46
2018-12-02T05:20:03.634Z,15.45
2018-12-02T05:21:05.412Z,15.45
2018-12-02T05:22:07.287Z,15.48
2018-12-02T05:23:09.047Z,15.47
2018-12-02T05:24:11.163Z,15.47
2018-12-02T05:25:17.303Z,15.43
2018-12-02T05:26:14.760Z,15.45
2018-12-02T05:27:16.552Z,15.45
2018-12-02T05:28:18.305Z,15.44
2018-12-02T05:29:20.061Z,15.46
2018-12-02T05:30:21.856Z,15.46
2018-12-02T05:31:23.629Z,15.45
2018-12-02T05:32:25.393Z,15.47
2018-12-02T05:33:27.176Z,15.44
2018-12-02T05:34:28.928Z,15.46
2018-12-02T05:35:30.733Z,15.48
2018-12-02T05:36:33.985Z,15.46
2018-12-02T05:37:36.233Z,15.46
2018-12-02T05:38:38.045Z,15.46
2018-12-02T05:39:39.816Z,15.47
2018-12-02T05:40:41.613Z,15.45
2018-12-02T05:41:48.791Z,15.45
2018-12-02T05:42:50.553Z,15.45
2018-12-02T05:43:52.314Z,15.45
2018-12-02T05:44:54.096Z,15.43
2018-12-02T05:45:55.883Z,15.45
2018-12-02T05:46:57.667Z,15.47
2018-12-02T05:47:59.437Z,15.46
2018-12-02T05:49:01.225Z,15.45
2018-12-02T05:50:02.999Z,15.45
2018-12-02T05:51:04.781Z,15.47
2018-12-02T05:52:07.573Z,15.46
2018-12-02T05:53:09.347Z,15.45
2018-12-02T05:54:11.109Z,15.46
2018-12-02T05:55:12.888Z,15.45
2018-12-02T05:56:14.675Z,15.46
2018-12-02T05:57:16.441Z,15.47
2018-12-02T05:58:18.210Z,15.47
2018-12-02T05:59:20.474Z,15.47
2018-12-02T06:00:22.644Z,15.46
2018-12-02T06:01:24.425Z,15.46
2018-12-02T06:02:26.196Z,15.48
2018-12-02T06:03:27.989Z,15.47
2018-12-02T06:04:29.755Z,15.47
2018-12-02T06:05:31.529Z,15.49
2018-12-02T06:06:33.308Z,15.49
2018-12-02T06:07:35.087Z,15.46
2018-12-02T06:08:36.858Z,15.46
2018-12-02T06:09:38.641Z,15.46
2018-12-02T06:10:40.426Z,15.46
2018-12-02T06:11:43.883Z,15.45
2018-12-02T06:12:44.075Z,15.46
2018-12-02T06:13:45.856Z,15.45
2018-12-02T06:14:48.954Z,15.46
2018-12-02T06:15:50.796Z,15.45
2018-12-02T06:16:52.574Z,15.46
2018-12-02T06:17:54.334Z,15.44
2018-12-02T06:18:56.110Z,15.44
2018-12-02T06:19:57.870Z,15.46
2018-12-02T06:20:59.622Z,15.46
2018-12-02T06:22:01.415Z,15.47
2018-12-02T06:23:03.174Z,15.47
2018-12-02T06:24:04.945Z,15.47
2018-12-02T06:25:06.752Z,15.46
2018-12-02T06:26:08.516Z,15.47
2018-12-02T06:27:10.305Z,15.45
2018-12-02T06:28:12.066Z,15.45
2018-12-02T06:29:13.838Z,15.45
2018-12-02T06:30:15.604Z,15.46
2018-12-02T06:31:17.357Z,15.45
2018-12-02T06:32:20.402Z,15.45
2018-12-02T06:33:22.180Z,15.44
2018-12-02T06:34:23.960Z,15.45
2018-12-02T06:35:25.712Z,15.42
2018-12-02T06:36:27.473Z,15.45
2018-12-02T06:37:29.264Z,15.45
2018-12-02T06:38:31.061Z,15.45
2018-12-02T06:39:32.860Z,15.45
2018-12-02T06:40:34.666Z,15.46
2018-12-02T06:41:36.437Z,15.47
2018-12-02T06:42:38.220Z,15.46
2018-12-02T06:43:40.012Z,15.45
2018-12-02T06:44:41.786Z,15.46
2018-12-02T06:45:43.565Z,15.47
2018-12-02T06:46:45.326Z,15.45
2018-12-02T06:47:47.104Z,15.44
2018-12-02T06:48:48.872Z,15.45
2018-12-02T06:49:50.628Z,15.47
2018-12-02T06:50:52.390Z,15.47
2018-12-02T06:51:54.157Z,15.47
2018-12-02T06:52:55.941Z,15.45
2018-12-02T06:53:57.695Z,15.46
2018-12-02T06:55:00.494Z,15.46
2018-12-02T06:56:03.263Z,15.47
2018-12-02T06:57:06.958Z,15.45
2018-12-02T06:58:08.768Z,15.45
2018-12-02T06:59:15.162Z,15.46
2018-12-02T07:00:19.954Z,15.45
2018-12-02T07:01:22.757Z,15.46
2018-12-02T07:02:27.866Z,15.46
2018-12-02T07:03:29.653Z,15.47
2018-12-02T07:04:31.409Z,15.46
2018-12-02T07:05:34.944Z,15.46
2018-12-02T07:06:36.703Z,15.47
2018-12-02T07:07:38.472Z,15.48
2018-12-02T07:08:40.266Z,15.45
2018-12-02T07:09:42.030Z,15.46
2018-12-02T07:10:43.806Z,15.47
2018-12-02T07:11:45.565Z,15.46
2018-12-02T07:12:48.216Z,15.46
2018-12-02T07:13:49.996Z,15.45
2018-12-02T07:14:51.751Z,15.44
2018-12-02T07:15:53.510Z,15.47
2018-12-02T07:16:55.282Z,15.48
2018-12-02T07:17:57.047Z,15.46
2018-12-02T07:18:58.862Z,15.45
2018-12-02T07:20:01.635Z,15.44
2018-12-02T07:21:03.428Z,15.45
2018-12-02T07:22:05.207Z,15.46
2018-12-02T07:23:08.866Z,15.47
2018-12-02T07:24:12.640Z,15.44
2018-12-02T07:25:14.451Z,15.46
2018-12-02T07:26:16.217Z,15.47
2018-12-02T07:27:17.993Z,15.45
2018-12-02T07:28:19.764Z,15.46
2018-12-02T07:29:21.561Z,15.45
2018-12-02T07:30:25.114Z,15.46
2018-12-02T07:31:25.129Z,15.46
2018-12-02T07:32:26.906Z,15.46
2018-12-02T07:33:28.670Z,15.46
2018-12-02T07:34:30.462Z,15.44
2018-12-02T07:35:32.250Z,15.44
2018-12-02T07:36:34.020Z,15.44
2018-12-02T07:37:35.790Z,15.45
2018-12-02T07:38:37.576Z,15.44
2018-12-02T07:39:39.414Z,15.45
2018-12-02T07:40:41.182Z,15.43
2018-12-02T07:41:42.944Z,15.44
2018-12-02T07:42:44.705Z,15.44
2018-12-02T07:43:46.491Z,15.45
2018-12-02T07:44:48.275Z,15.44
2018-12-02T07:45:50.042Z,15.43
2018-12-02T07:46:51.818Z,15.44
2018-12-02T07:47:53.589Z,15.43
2018-12-02T07:48:56.725Z,15.44
2018-12-02T07:49:58.500Z,15.44
2018-12-02T07:51:00.287Z,15.47
2018-12-02T07:52:02.055Z,15.45
2018-12-02T07:53:03.916Z,15.46
2018-12-02T07:54:05.691Z,15.43
2018-12-02T07:55:07.465Z,15.45
2018-12-02T07:56:09.227Z,15.46
2018-12-02T07:57:12.014Z,15.46
2018-12-02T07:58:14.684Z,15.46
2018-12-02T07:59:16.441Z,15.45
2018-12-02T08:00:18.239Z,15.45
2018-12-02T08:01:20.013Z,15.46
2018-12-02T08:02:21.787Z,15.47
2018-12-02T08:03:23.557Z,15.46
2018-12-02T08:04:25.328Z,15.45
2018-12-02T08:05:27.121Z,15.45
2018-12-02T08:06:28.897Z,15.46
2018-12-02T08:07:31.698Z,15.45
2018-12-02T08:08:33.471Z,15.45
2018-12-02T08:09:35.239Z,15.46
2018-12-02T08:10:37.029Z,15.45
2018-12-02T08:11:38.791Z,15.44
2018-12-02T08:12:40.547Z,15.45
2018-12-02T08:13:42.305Z,15.45
2018-12-02T08:14:44.057Z,15.43
2018-12-02T08:15:45.837Z,15.46
2018-12-02T08:16:47.617Z,15.44
2018-12-02T08:17:49.415Z,15.46
2018-12-02T08:18:51.168Z,15.46
2018-12-02T08:19:52.945Z,15.46
2018-12-02T08:20:56.418Z,15.46
2018-12-02T08:21:58.287Z,15.46
2018-12-02T08:23:00.043Z,15.44
2018-12-02T08:24:01.790Z,15.45
2018-12-02T08:25:03.561Z,15.45
2018-12-02T08:26:06.863Z,15.44
2018-12-02T08:27:08.632Z,15.43
2018-12-02T08:28:10.415Z,15.43
2018-12-02T08:29:12.272Z,15.44
2018-12-02T08:30:14.041Z,15.45
2018-12-02T08:31:15.830Z,15.46
2018-12-02T08:32:17.592Z,15.45
2018-12-02T08:33:19.364Z,15.46
2018-12-02T08:34:21.134Z,15.45
2018-12-02T08:35:22.911Z,15.46
2018-12-02T08:36:24.698Z,15.45
2018-12-02T08:37:26.483Z,15.45
2018-12-02T08:38:29.379Z,15.44
2018-12-02T08:39:31.392Z,15.44
2018-12-02T08:40:33.260Z,15.44
2018-12-02T08:41:35.042Z,15.44
2018-12-02T08:42:36.804Z,15.44
2018-12-02T08:43:38.550Z,15.44
2018-12-02T08:44:40.375Z,15.45
2018-12-02T08:45:42.129Z,15.45
2018-12-02T08:46:43.919Z,15.46
2018-12-02T08:47:45.767Z,15.44
2018-12-02T08:48:47.516Z,15.44
2018-12-02T08:49:49.280Z,15.44
2018-12-02T08:50:51.053Z,15.46
2018-12-02T08:51:52.843Z,15.46
2018-12-02T08:52:54.949Z,15.46
2018-12-02T08:53:56.714Z,15.45
2018-12-02T08:54:58.481Z,15.44
2018-12-02T08:56:00.242Z,15.45
2018-12-02T08:57:02.049Z,15.46
2018-12-02T08:58:03.806Z,15.46
2018-12-02T08:59:05.556Z,15.46
2018-12-02T09:00:07.333Z,15.45
2018-12-02T09:01:09.096Z,15.46
2018-12-02T09:02:10.861Z,15.46
2018-12-02T09:03:12.682Z,15.46
2018-12-02T09:04:14.435Z,15.45
2018-12-02T09:05:16.212Z,15.44
2018-12-02T09:06:17.962Z,15.45
2018-12-02T09:07:19.733Z,15.45
2018-12-02T09:08:21.817Z,15.44
2018-12-02T09:09:23.587Z,15.43
2018-12-02T09:10:25.360Z,15.44
2018-12-02T09:11:27.133Z,15.44
2018-12-02T09:12:28.901Z,15.44
2018-12-02T09:13:30.662Z,15.43
2018-12-02T09:14:32.433Z,15.44
2018-12-02T09:15:34.198Z,15.44
2018-12-02T09:16:36.029Z,15.45
2018-12-02T09:17:37.901Z,15.45
2018-12-02T09:18:39.676Z,15.46
2018-12-02T09:19:41.459Z,15.44
2018-12-02T09:20:43.226Z,15.45
2018-12-02T09:21:44.987Z,15.45
2018-12-02T09:22:46.775Z,15.45
2018-12-02T09:23:48.537Z,15.45
2018-12-02T09:24:50.353Z,15.46
2018-12-02T09:25:52.365Z,15.45
2018-12-02T09:26:53.935Z,15.45
2018-12-02T09:27:55.709Z,15.44
2018-12-02T09:28:56.921Z,15.46
2018-12-02T09:29:58.710Z,15.46
2018-12-02T09:31:00.473Z,15.46
2018-12-02T09:32:02.246Z,15.45
2018-12-02T09:33:04.071Z,15.46
2018-12-02T09:34:05.869Z,15.46
2018-12-02T09:35:07.665Z,15.45
2018-12-02T09:36:09.435Z,15.46
2018-12-02T09:37:11.200Z,15.45
2018-12-02T09:38:12.994Z,15.46
2018-12-02T09:39:18.378Z,15.45
2018-12-02T09:40:16.694Z,15.47
2018-12-02T09:41:18.482Z,15.44
2018-12-02T09:42:20.236Z,15.45
2018-12-02T09:43:22.027Z,15.44
2018-12-02T09:44:23.794Z,15.45
2018-12-02T09:45:25.554Z,15.46
2018-12-02T09:46:27.323Z,15.46
2018-12-02T09:47:29.118Z,15.45
2018-12-02T09:48:30.936Z,15.44
2018-12-02T09:49:32.717Z,15.46
2018-12-02T09:50:34.493Z,15.46
2018-12-02T09:51:36.272Z,15.44
2018-12-02T09:52:38.030Z,15.46
2018-12-02T09:53:39.783Z,15.46
2018-12-02T09:54:41.560Z,15.46
2018-12-02T09:55:43.320Z,15.46
2018-12-02T09:56:45.093Z,15.46
2018-12-02T09:57:46.868Z,15.46
2018-12-02T09:58:48.670Z,15.47
2018-12-02T09:59:50.423Z,15.47
2018-12-02T10:00:52.202Z,15.49
2018-12-02T10:01:53.963Z,15.49
2018-12-02T10:02:55.741Z,15.49
2018-12-02T10:03:57.525Z,15.49
2018-12-02T10:04:59.278Z,15.48
2018-12-02T10:06:01.061Z,15.50
2018-12-02T10:07:02.834Z,15.48
2018-12-02T10:08:04.596Z,15.51
2018-12-02T10:09:06.384Z,15.50
2018-12-02T10:10:08.146Z,15.50
2018-12-02T10:11:09.928Z,15.49
2018-12-02T10:12:11.707Z,15.48
2018-12-02T10:13:13.489Z,15.49
2018-12-02T10:14:15.284Z,15.48
2018-12-02T10:15:23.396Z,15.49
2018-12-02T10:16:25.174Z,15.49
2018-12-02T10:17:26.931Z,15.49
2018-12-02T10:18:28.695Z,15.48
2018-12-02T10:19:30.489Z,15.49
2018-12-02T10:20:32.250Z,15.49
2018-12-02T10:21:34.013Z,15.51
2018-12-02T10:22:35.765Z,15.51
2018-12-02T10:23:37.539Z,15.50
2018-12-02T10:24:39.325Z,15.49
2018-12-02T10:25:41.100Z,15.49
2018-12-02T10:26:42.872Z,15.49
2018-12-02T10:27:44.646Z,15.49
2018-12-02T10:28:46.406Z,15.47
2018-12-02T10:29:48.213Z,15.49
2018-12-02T10:30:49.990Z,15.50
2018-12-02T10:31:51.769Z,15.52
2018-12-02T10:32:53.528Z,15.49
2018-12-02T10:33:55.286Z,15.50
2018-12-02T10:34:57.071Z,15.50
2018-12-02T10:35:58.831Z,15.51
2018-12-02T10:37:00.593Z,15.49
2018-12-02T10:38:02.352Z,15.49
2018-12-02T10:39:04.398Z,15.49
2018-12-02T10:40:06.190Z,15.50
2018-12-02T10:41:07.944Z,15.50
2018-12-02T10:42:09.992Z,15.50
2018-12-02T10:43:11.791Z,15.50
2018-12-02T10:44:13.619Z,15.50
2018-12-02T10:45:15.456Z,15.50
2018-12-02T10:46:17.218Z,15.52
2018-12-02T10:47:18.985Z,15.51
2018-12-02T10:48:20.769Z,15.51
2018-12-02T10:49:22.552Z,15.50
2018-12-02T10:50:24.345Z,15.50
2018-12-02T10:51:26.107Z,15.49
2018-12-02T10:52:27.883Z,15.49
2018-12-02T10:53:29.680Z,15.50
2018-12-02T10:54:31.502Z,15.49
2018-12-02T10:55:33.265Z,15.48
2018-12-02T10:56:35.035Z,15.50
2018-12-02T10:57:36.788Z,15.50
2018-12-02T10:58:38.563Z,15.50
2018-12-02T10:59:40.361Z,15.50
2018-12-02T11:00:47.442Z,15.49
2018-12-02T11:01:53.474Z,15.49
2018-12-02T11:02:55.230Z,15.49
2018-12-02T11:03:57.006Z,15.50
2018-12-02T11:04:58.761Z,15.49
2018-12-02T11:06:00.545Z,15.50
2018-12-02T11:07:02.313Z,15.50
2018-12-02T11:08:04.080Z,15.52
2018-12-02T11:09:05.846Z,15.51
2018-12-02T11:10:07.609Z,15.51
2018-12-02T11:11:09.371Z,15.50
2018-12-02T11:12:11.168Z,15.55
2018-12-02T11:13:12.965Z,15.56
2018-12-02T11:14:14.722Z,15.57
2018-12-02T11:15:16.473Z,15.52
2018-12-02T11:16:18.259Z,15.49
2018-12-02T11:17:20.030Z,15.47
2018-12-02T11:18:21.797Z,15.44
2018-12-02T11:19:23.564Z,15.42
2018-12-02T11:20:25.337Z,15.38
2018-12-02T11:21:27.136Z,15.44
2018-12-02T11:22:30.826Z,15.44
2018-12-02T11:23:32.700Z,15.44
2018-12-02T11:24:34.468Z,15.44
2018-12-02T11:25:36.244Z,15.43
2018-12-02T11:26:38.015Z,15.50
2018-12-02T11:27:39.781Z,15.56
2018-12-02T11:28:41.552Z,15.67
2018-12-02T11:29:44.487Z,15.75
2018-12-02T11:30:46.273Z,15.76
2018-12-02T11:31:48.073Z,15.96
2018-12-02T11:32:49.965Z,15.96
2018-12-02T11:33:51.719Z,16.00
2018-12-02T11:34:53.475Z,15.96
2018-12-02T11:35:55.253Z,15.96
2018-12-02T11:36:57.441Z,15.93
2018-12-02T11:37:59.214Z,15.89
2018-12-02T11:39:00.995Z,15.86
2018-12-02T11:40:02.773Z,15.85
2018-12-02T11:41:04.617Z,15.85
2018-12-02T11:42:06.432Z,15.83
2018-12-02T11:43:08.194Z,15.86
2018-12-02T11:44:09.962Z,15.88
2018-12-02T11:45:11.731Z,15.86
2018-12-02T11:46:13.501Z,15.86
2018-12-02T11:47:16.593Z,15.87
2018-12-02T11:48:18.907Z,15.91
2018-12-02T11:49:20.674Z,15.99
2018-12-02T11:50:22.447Z,16.00
2018-12-02T11:51:24.225Z,16.11
2018-12-02T11:52:26.017Z,16.09
2018-12-02T11:53:27.789Z,16.13
2018-12-02T11:54:30.302Z,16.14
2018-12-02T11:55:32.052Z,16.14
2018-12-02T11:56:33.821Z,16.14
2018-12-02T11:57:35.622Z,16.18
2018-12-02T11:58:37.379Z,16.22
2018-12-02T11:59:39.169Z,16.26
2018-12-02T12:00:40.956Z,16.25
2018-12-02T12:01:42.729Z,16.28
2018-12-02T12:02:44.555Z,16.29
2018-12-02T12:03:46.327Z,16.24
2018-12-02T12:04:48.097Z,16.25
2018-12-02T12:05:49.886Z,16.25
2018-12-02T12:06:51.705Z,16.32
2018-12-02T12:07:53.494Z,16.34
2018-12-02T12:08:55.271Z,16.30
2018-12-02T12:09:57.037Z,16.24
2018-12-02T12:10:58.810Z,16.15
2018-12-02T12:12:00.578Z,16.08
2018-12-02T12:13:02.360Z,16.02
2018-12-02T12:14:04.145Z,15.97
2018-12-02T12:15:06.091Z,15.94
2018-12-02T12:16:08.997Z,15.88
2018-12-02T12:17:11.255Z,15.87
2018-12-02T12:18:13.041Z,15.85
2018-12-02T12:19:14.823Z,15.82
2018-12-02T12:20:16.890Z,15.82
2018-12-02T12:21:18.790Z,15.81
2018-12-02T12:22:21.018Z,15.80
2018-12-02T12:24:31.004Z,15.78
2018-12-02T12:25:32.780Z,15.77
2018-12-02T12:26:34.590Z,15.76
2018-12-02T12:27:36.343Z,15.76
2018-12-02T12:28:38.170Z,15.75
2018-12-02T12:29:39.941Z,15.75
2018-12-02T12:30:41.707Z,15.75
2018-12-02T12:31:43.485Z,15.74
2018-12-02T12:32:45.266Z,15.74
2018-12-02T12:33:47.053Z,15.73
2018-12-02T12:34:49.896Z,15.73
2018-12-02T12:35:51.672Z,15.74
2018-12-02T12:36:53.453Z,15.74
2018-12-02T12:37:55.277Z,15.72
2018-12-02T12:38:57.167Z,15.73
2018-12-02T12:39:58.970Z,15.72
2018-12-02T12:41:00.776Z,15.72
2018-12-02T12:42:02.951Z,15.71
2018-12-02T12:43:04.726Z,15.72
2018-12-02T12:44:06.513Z,15.71
2018-12-02T12:45:09.411Z,15.72
2018-12-02T12:46:11.247Z,15.71
2018-12-02T12:47:13.037Z,15.71
2018-12-02T12:48:14.811Z,15.71
2018-12-02T12:49:16.688Z,15.70
2018-12-02T12:50:18.551Z,15.70
2018-12-02T12:51:20.332Z,15.70
2018-12-02T12:52:22.151Z,15.71
2018-12-02T12:53:23.969Z,15.70
2018-12-02T12:54:25.779Z,15.71
2018-12-02T12:55:27.599Z,15.69
2018-12-02T12:56:29.391Z,15.69
2018-12-02T12:57:31.188Z,15.70
2018-12-02T12:58:32.968Z,15.70
2018-12-02T12:59:35.769Z,15.69
2018-12-02T13:00:37.549Z,15.70
2018-12-02T13:01:39.364Z,15.69
2018-12-02T13:02:41.305Z,15.69
2018-12-02T13:03:43.097Z,15.69
2018-12-02T13:04:44.913Z,15.69
2018-12-02T13:05:46.673Z,15.69
2018-12-02T13:06:48.458Z,15.69
2018-12-02T13:07:50.228Z,15.68
2018-12-02T13:08:51.989Z,15.69
2018-12-02T13:09:53.769Z,15.69
2018-12-02T13:10:55.539Z,15.69
2018-12-02T13:11:57.336Z,15.68
2018-12-02T13:12:59.092Z,15.69
2018-12-02T13:14:00.865Z,15.68
2018-12-02T13:15:02.658Z,15.68
2018-12-02T13:16:04.450Z,15.67
2018-12-02T13:17:06.219Z,15.68
2018-12-02T13:18:07.990Z,15.68